Strona główna
METAR-TAF:

METAR-TAF

Lotnisko :

Port lotniczy Pori

Pori, Finlandia

Szerokość geograficzna: 61-28N, Długość geograficzna: 021-48E, wysokość: 13 m

Aktualna obserwacja pogody

Raport powstał 22 minut temu, godzina 02:20 UTC
Wiatr 3 kt od zachodnio-północny zachód
Temperatura 10°C
Wilgotność 93%
Ciśnienie 1012 hPa
Widzialność 10 km lub więcej

METAR: EFPO 180220Z AUTO 29003KT 9999 FEW001/// 10/09 Q1012

czas: 05:42 (02:42 UTC)

Prognoza

Raport powstał 15 godziny i 8 minut temu, godzina 11:34 UTC
Prognoza ważna od 17 godzina 12 UTC do 17 godzina 14 UTC
Wiatr 4 kt od północny wschód
Widzialność 10 km lub więcej
Brak chmur poniżej 1500 m i brak chmur cumulonimbus
Przejściowo
od 17 godzina 12 UTC do 17 godzina 14 UTC
Widzialność: 6000 m
Rozproszone chmury na wysokości 3000 ft, Cumulonimbus.
burza, deszcz

TAF: EFPO 171134Z 1712/1714 05004KT CAVOK TEMPO 1712/1714 6000 TSRA SCT030CB

Obserwacja i prognoza pogody dla ponad 4000 lotnisk (raport METAR i TAF).

Dostępne stacje oznaczono żółtymi i czerwonymi punktami na mapie.

Najedź kursorem aby zobaczyć nazwę stacji.

Kliknij aby zobaczyć obserwacje i prognozy pogody.

Aby zmienić mapę: kliknij na zielony przycisk z czarnym krzyżykiem, aby powiększyć; na zielony przycisk z myślnikiem, aby pomniejszyć; na zielone strzałki, aby przejść do map sąsiednich.


METAR-TAF: